Atyla — YJTM7 — position and weather

sailwx.info

Track history (hours):
 
Tides and Currents Weather Stations Pressure Air Temp Water Temp Dewpoint Dewpoint Depression Visibility Wind Speed Wind Dir Waves Ship Positions

Atyla

Ship's website: http://atylaship.com

Last reported at 2017-Oct-01 15:13 UTC. Time now 2017-Nov-18 14:12 UTC.
Position N 43°16' W 002°57'.
Warning: this ship's position is 47 days out of date.

Length 24 m.

Type: Sailing vessel. MMSI: 577192000.

Date/timePositionNaut miles runAvg speedWind from/ knotsBaromVisibWave heightAir tempDewpointWater temp
2017-Oct-01 15:13N 43°16' W 002°57'1 5.0
2017-Oct-01 14:56N 43°17' W 002°58'3 6.0
2017-Oct-01 14:31N 43°19' W 003°00'2 3.6
2017-Oct-01 14:00N 43°21' W 003°02'2 4.1
2017-Oct-01 13:29N 43°21' W 003°05'0 0.1
2017-Oct-01 12:59N 43°21' W 003°05'0 0.0
2017-Oct-01 12:29N 43°21' W 003°05'0 0.0
2017-Oct-01 11:59N 43°21' W 003°05'0 0.0
2017-Oct-01 11:29N 43°21' W 003°05'0 0.0
2017-Oct-01 10:59N 43°21' W 003°05'0 0.0
2017-Oct-01 10:29N 43°21' W 003°05'0 0.0
2017-Oct-01 09:59N 43°21' W 003°05'0 0.0
2017-Oct-01 09:29N 43°21' W 003°05'0 0.0
2017-Oct-01 08:58N 43°21' W 003°05'0 0.0
2017-Oct-01 08:28N 43°21' W 003°05'0 0.0
2017-Oct-01 07:58N 43°21' W 003°05'0 0.0
2017-Oct-01 07:28N 43°21' W 003°05'0 0.0
2017-Oct-01 06:58N 43°21' W 003°05'0 0.0
2017-Oct-01 06:28N 43°21' W 003°05'0 0.0
2017-Oct-01 05:58N 43°21' W 003°05'0 0.0
2017-Oct-01 05:28N 43°21' W 003°05'0 0.0
2017-Oct-01 04:58N 43°21' W 003°05'0 0.0
2017-Oct-01 04:28N 43°21' W 003°05'0 0.0
2017-Oct-01 03:58N 43°21' W 003°05'0 0.0
2017-Oct-01 03:28N 43°21' W 003°05'0 0.0
2017-Oct-01 02:58N 43°21' W 003°05'0 0.0
2017-Sep-30 01:58N 43°21' W 003°05'0 0.0
2017-Sep-30 01:28N 43°21' W 003°05'0 0.0
2017-Sep-30 00:58N 43°21' W 003°05'0 0.0
2017-Sep-30 00:28N 43°21' W 003°05'0 0.0
2017-Sep-29 23:58N 43°21' W 003°05'0 0.0
2017-Sep-29 23:28N 43°21' W 003°05'0 0.0
2017-Sep-29 22:58N 43°21' W 003°05'0 0.0
2017-Sep-29 22:28N 43°21' W 003°05'0 0.0
2017-Sep-29 21:58N 43°21' W 003°05'0 0.0
2017-Sep-29 21:28N 43°21' W 003°05'0 0.0
2017-Sep-29 20:58N 43°21' W 003°05'0 0.0
2017-Sep-29 20:28N 43°21' W 003°05'0 0.0
2017-Sep-29 19:58N 43°21' W 003°05'0 0.0
2017-Sep-29 19:28N 43°21' W 003°05'0 0.0
2017-Sep-29 18:58N 43°21' W 003°05'0 0.0
2017-Sep-29 18:28N 43°21' W 003°05'0 0.0
2017-Sep-29 17:58N 43°21' W 003°05'0 0.0
2017-Sep-29 17:28N 43°21' W 003°05'0 0.0
2017-Sep-29 16:58N 43°21' W 003°05'0 0.0
2017-Sep-29 16:28N 43°21' W 003°05'0 0.0
2017-Sep-29 15:58N 43°21' W 003°05'0 0.3
2017-Sep-29 15:30N 43°21' W 003°05'2 4.4
2017-Sep-29 15:00N 43°21' W 003°02'3 6.0
2017-Sep-29 14:30N 43°19' W 002°59'  
Track history (hours):
 
Tides and Currents Weather Stations Pressure Air Temp Water Temp Dewpoint Dewpoint Depression Visibility Wind Speed Wind Dir Waves Ship Positions

Atyla

Ship's website: http://atylaship.com

Last reported at 2017-Oct-01 15:13 UTC. Time now 2017-Nov-18 14:12 UTC.
Position N 43°16' W 002°57'.
Warning: this ship's position is 47 days out of date.

Length 24 m.

Type: Sailing vessel. MMSI: 577192000.

Date/timePositionNaut miles runAvg speedWind from/ knotsBaromVisibWave heightAir tempDewpointWater temp
2017-Oct-01 15:13N 43°16' W 002°57'1 5.0
2017-Oct-01 14:56N 43°17' W 002°58'3 6.0
2017-Oct-01 14:31N 43°19' W 003°00'2 3.6
2017-Oct-01 14:00N 43°21' W 003°02'2 4.1
2017-Oct-01 13:29N 43°21' W 003°05'0 0.1
2017-Oct-01 12:59N 43°21' W 003°05'0 0.0
2017-Oct-01 12:29N 43°21' W 003°05'0 0.0
2017-Oct-01 11:59N 43°21' W 003°05'0 0.0
2017-Oct-01 11:29N 43°21' W 003°05'0 0.0
2017-Oct-01 10:59N 43°21' W 003°05'0 0.0
2017-Oct-01 10:29N 43°21' W 003°05'0 0.0
2017-Oct-01 09:59N 43°21' W 003°05'0 0.0
2017-Oct-01 09:29N 43°21' W 003°05'0 0.0
2017-Oct-01 08:58N 43°21' W 003°05'0 0.0
2017-Oct-01 08:28N 43°21' W 003°05'0 0.0
2017-Oct-01 07:58N 43°21' W 003°05'0 0.0
2017-Oct-01 07:28N 43°21' W 003°05'0 0.0
2017-Oct-01 06:58N 43°21' W 003°05'0 0.0
2017-Oct-01 06:28N 43°21' W 003°05'0 0.0
2017-Oct-01 05:58N 43°21' W 003°05'0 0.0
2017-Oct-01 05:28N 43°21' W 003°05'0 0.0
2017-Oct-01 04:58N 43°21' W 003°05'0 0.0
2017-Oct-01 04:28N 43°21' W 003°05'0 0.0
2017-Oct-01 03:58N 43°21' W 003°05'0 0.0
2017-Oct-01 03:28N 43°21' W 003°05'0 0.0
2017-Oct-01 02:58N 43°21' W 003°05'0 0.0
2017-Sep-30 01:58N 43°21' W 003°05'0 0.0
2017-Sep-30 01:28N 43°21' W 003°05'0 0.0
2017-Sep-30 00:58N 43°21' W 003°05'0 0.0
2017-Sep-30 00:28N 43°21' W 003°05'0 0.0
2017-Sep-29 23:58N 43°21' W 003°05'0 0.0
2017-Sep-29 23:28N 43°21' W 003°05'0 0.0
2017-Sep-29 22:58N 43°21' W 003°05'0 0.0
2017-Sep-29 22:28N 43°21' W 003°05'0 0.0
2017-Sep-29 21:58N 43°21' W 003°05'0 0.0
2017-Sep-29 21:28N 43°21' W 003°05'0 0.0
2017-Sep-29 20:58N 43°21' W 003°05'0 0.0
2017-Sep-29 20:28N 43°21' W 003°05'0 0.0
2017-Sep-29 19:58N 43°21' W 003°05'0 0.0
2017-Sep-29 19:28N 43°21' W 003°05'0 0.0
2017-Sep-29 18:58N 43°21' W 003°05'0 0.0
2017-Sep-29 18:28N 43°21' W 003°05'0 0.0
2017-Sep-29 17:58N 43°21' W 003°05'0 0.0
2017-Sep-29 17:28N 43°21' W 003°05'0 0.0
2017-Sep-29 16:58N 43°21' W 003°05'0 0.0
2017-Sep-29 16:28N 43°21' W 003°05'0 0.0
2017-Sep-29 15:58N 43°21' W 003°05'0 0.3
2017-Sep-29 15:30N 43°21' W 003°05'2 4.4
2017-Sep-29 15:00N 43°21' W 003°02'3 6.0
2017-Sep-29 14:30N 43°19' W 002°59'  

Dump ship's entire track history